sensor_id;sensor_type;location;lat;lon;timestamp;pressure;altitude;pressure_sealevel;temperature;humidity
59767;BME280;46248;58.364;25.582;2023-07-20T00:00:15;99517.50;;;12.61;96.93
59767;BME280;46248;58.364;25.582;2023-07-20T00:03:38;99526.03;;;12.65;97.05
59767;BME280;46248;58.364;25.582;2023-07-20T00:07:00;99530.53;;;12.63;96.98
59767;BME280;46248;58.364;25.582;2023-07-20T00:10:22;99528.88;;;12.62;97.30
59767;BME280;46248;58.364;25.582;2023-07-20T00:13:46;99526.34;;;12.60;97.68
59767;BME280;46248;58.364;25.582;2023-07-20T00:17:08;99520.28;;;12.60;97.53
59767;BME280;46248;58.364;25.582;2023-07-20T00:20:30;99522.06;;;12.59;97.75
59767;BME280;46248;58.364;25.582;2023-07-20T00:23:52;99529.81;;;12.61;98.13
59767;BME280;46248;58.364;25.582;2023-07-20T00:27:14;99534.13;;;12.62;98.10
59767;BME280;46248;58.364;25.582;2023-07-20T00:30:39;99528.16;;;12.60;98.53
59767;BME280;46248;58.364;25.582;2023-07-20T00:34:01;99530.03;;;12.58;98.61
59767;BME280;46248;58.364;25.582;2023-07-20T00:37:23;99533.63;;;12.57;98.39
59767;BME280;46248;58.364;25.582;2023-07-20T00:40:45;99527.66;;;12.55;98.98
59767;BME280;46248;58.364;25.582;2023-07-20T00:44:08;99528.63;;;12.54;98.95
59767;BME280;46248;58.364;25.582;2023-07-20T00:47:32;99520.72;;;12.54;99.33
59767;BME280;46248;58.364;25.582;2023-07-20T00:50:54;99521.94;;;12.50;99.68
59767;BME280;46248;58.364;25.582;2023-07-20T00:54:16;99532.06;;;12.54;99.91
59767;BME280;46248;58.364;25.582;2023-07-20T00:57:38;99520.00;;;12.52;99.79
59767;BME280;46248;58.364;25.582;2023-07-20T01:01:00;99523.59;;;12.51;99.21
59767;BME280;46248;58.364;25.582;2023-07-20T01:04:23;99522.53;;;12.53;99.43
59767;BME280;46248;58.364;25.582;2023-07-20T01:07:52;99532.19;;;12.53;99.83
59767;BME280;46248;58.364;25.582;2023-07-20T01:11:21;99526.22;;;12.51;100.00
59767;BME280;46248;58.364;25.582;2023-07-20T01:14:45;99530.63;;;12.50;99.68
59767;BME280;46248;58.364;25.582;2023-07-20T01:18:07;99520.22;;;12.49;99.54
59767;BME280;46248;58.364;25.582;2023-07-20T01:21:44;99518.44;;;12.49;100.00
59767;BME280;46248;58.364;25.582;2023-07-20T01:25:14;99514.06;;;12.50;99.88
59767;BME280;46248;58.364;25.582;2023-07-20T01:28:57;99513.19;;;12.49;100.00
59767;BME280;46248;58.364;25.582;2023-07-20T01:32:29;99511.66;;;12.47;100.00
59767;BME280;46248;58.364;25.582;2023-07-20T01:35:55;99513.56;;;12.45;100.00
59767;BME280;46248;58.364;25.582;2023-07-20T01:39:18;99512.00;;;12.42;100.00
59767;BME280;46248;58.364;25.582;2023-07-20T01:42:44;99512.94;;;12.41;99.78
59767;BME280;46248;58.364;25.582;2023-07-20T01:46:06;99508.53;;;12.42;99.76
59767;BME280;46248;58.364;25.582;2023-07-20T01:49:29;99514.75;;;12.41;99.97
59767;BME280;46248;58.364;25.582;2023-07-20T01:52:51;99518.19;;;12.41;99.53
59767;BME280;46248;58.364;25.582;2023-07-20T01:56:13;99517.38;;;12.41;100.00
59767;BME280;46248;58.364;25.582;2023-07-20T01:59:34;99518.44;;;12.38;100.00
59767;BME280;46248;58.364;25.582;2023-07-20T02:02:56;99515.91;;;12.36;100.00
59767;BME280;46248;58.364;25.582;2023-07-20T02:06:20;99520.31;;;12.36;100.00
59767;BME280;46248;58.364;25.582;2023-07-20T02:09:42;99523.69;;;12.38;100.00
59767;BME280;46248;58.364;25.582;2023-07-20T02:13:03;99516.72;;;12.37;100.00
59767;BME280;46248;58.364;25.582;2023-07-20T02:16:25;99520.22;;;12.37;100.00
59767;BME280;46248;58.364;25.582;2023-07-20T02:19:50;99526.31;;;12.38;100.00
59767;BME280;46248;58.364;25.582;2023-07-20T02:23:13;99518.44;;;12.38;100.00
59767;BME280;46248;58.364;25.582;2023-07-20T02:26:35;99520.00;;;12.41;100.00
59767;BME280;46248;58.364;25.582;2023-07-20T02:29:57;99515.56;;;12.41;100.00
59767;BME280;46248;58.364;25.582;2023-07-20T02:33:19;99516.41;;;12.42;100.00
59767;BME280;46248;58.364;25.582;2023-07-20T02:36:42;99512.94;;;12.41;100.00
59767;BME280;46248;58.364;25.582;2023-07-20T02:40:06;99511.03;;;12.43;100.00
59767;BME280;46248;58.364;25.582;2023-07-20T02:43:29;99507.47;;;12.44;100.00
59767;BME280;46248;58.364;25.582;2023-07-20T02:46:51;99504.84;;;12.44;100.00
59767;BME280;46248;58.364;25.582;2023-07-20T02:50:13;99508.31;;;12.45;100.00
59767;BME280;46248;58.364;25.582;2023-07-20T02:53:35;99513.41;;;12.46;100.00
59767;BME280;46248;58.364;25.582;2023-07-20T02:56:58;99513.56;;;12.45;100.00
59767;BME280;46248;58.364;25.582;2023-07-20T03:00:20;99519.53;;;12.47;100.00
59767;BME280;46248;58.364;25.582;2023-07-20T03:03:43;99516.03;;;12.46;100.00
59767;BME280;46248;58.364;25.582;2023-07-20T03:07:07;99519.41;;;12.48;100.00
59767;BME280;46248;58.364;25.582;2023-07-20T03:10:29;99520.84;;;12.52;100.00
59767;BME280;46248;58.364;25.582;2023-07-20T03:13:52;99520.00;;;12.52;100.00
59767;BME280;46248;58.364;25.582;2023-07-20T03:17:14;99512.13;;;12.52;100.00
59767;BME280;46248;58.364;25.582;2023-07-20T03:20:36;99518.59;;;12.59;100.00
59767;BME280;46248;58.364;25.582;2023-07-20T03:23:58;99511.72;;;12.80;100.00
59767;BME280;46248;58.364;25.582;2023-07-20T03:27:19;99511.00;;;13.12;100.00
59767;BME280;46248;58.364;25.582;2023-07-20T03:30:43;99510.56;;;13.41;99.41
59767;BME280;46248;58.364;25.582;2023-07-20T03:34:05;99512.47;;;13.50;98.17
59767;BME280;46248;58.364;25.582;2023-07-20T03:37:29;99513.66;;;13.57;98.19
59767;BME280;46248;58.364;25.582;2023-07-20T03:40:51;99514.47;;;13.69;98.42
59767;BME280;46248;58.364;25.582;2023-07-20T03:44:13;99520.59;;;14.02;98.12
59767;BME280;46248;58.364;25.582;2023-07-20T03:47:36;99528.66;;;14.21;96.78
59767;BME280;46248;58.364;25.582;2023-07-20T03:50:58;99518.91;;;14.33;96.27
59767;BME280;46248;58.364;25.582;2023-07-20T03:54:20;99504.34;;;14.29;95.68
59767;BME280;46248;58.364;25.582;2023-07-20T03:57:42;99517.78;;;14.47;95.23
59767;BME280;46248;58.364;25.582;2023-07-20T04:01:05;99519.78;;;14.54;94.62
59767;BME280;46248;58.364;25.582;2023-07-20T04:04:29;99518.06;;;14.64;94.12
59767;BME280;46248;58.364;25.582;2023-07-20T04:07:51;99525.19;;;14.74;93.51
59767;BME280;46248;58.364;25.582;2023-07-20T04:11:13;99518.63;;;14.89;92.82
59767;BME280;46248;58.364;25.582;2023-07-20T04:14:36;99522.19;;;15.09;92.35
59767;BME280;46248;58.364;25.582;2023-07-20T04:17:58;99524.38;;;15.34;91.23
59767;BME280;46248;58.364;25.582;2023-07-20T04:21:26;99515.00;;;15.61;89.96
59767;BME280;46248;58.364;25.582;2023-07-20T04:24:48;99517.72;;;15.90;88.86
59767;BME280;46248;58.364;25.582;2023-07-20T04:28:10;99514.56;;;16.16;87.85
59767;BME280;46248;58.364;25.582;2023-07-20T04:31:32;99516.75;;;16.40;86.54
59767;BME280;46248;58.364;25.582;2023-07-20T04:34:54;99515.78;;;16.60;86.42
59767;BME280;46248;58.364;25.582;2023-07-20T04:38:18;99509.91;;;16.76;84.74
59767;BME280;46248;58.364;25.582;2023-07-20T04:41:40;99514.47;;;16.93;83.69
59767;BME280;46248;58.364;25.582;2023-07-20T04:45:03;99516.63;;;17.17;83.55
59767;BME280;46248;58.364;25.582;2023-07-20T04:48:25;99511.25;;;17.37;83.11
59767;BME280;46248;58.364;25.582;2023-07-20T04:51:47;99512.28;;;17.54;82.49
59767;BME280;46248;58.364;25.582;2023-07-20T04:55:10;99506.72;;;17.75;81.37
59767;BME280;46248;58.364;25.582;2023-07-20T04:58:32;99514.19;;;17.89;80.43
59767;BME280;46248;58.364;25.582;2023-07-20T05:01:54;99508.69;;;18.00;79.03
59767;BME280;46248;58.364;25.582;2023-07-20T05:05:15;99511.78;;;18.14;78.71
59767;BME280;46248;58.364;25.582;2023-07-20T05:08:37;99511.00;;;18.21;78.41
59767;BME280;46248;58.364;25.582;2023-07-20T05:12:01;99508.28;;;18.31;78.02
59767;BME280;46248;58.364;25.582;2023-07-20T05:15:23;99503.72;;;18.41;75.17
59767;BME280;46248;58.364;25.582;2023-07-20T05:18:45;99507.97;;;18.34;75.36
59767;BME280;46248;58.364;25.582;2023-07-20T05:22:07;99508.88;;;18.43;75.69
59767;BME280;46248;58.364;25.582;2023-07-20T05:25:28;99503.34;;;18.36;75.16
59767;BME280;46248;58.364;25.582;2023-07-20T05:28:52;99505.38;;;18.42;75.63
59767;BME280;46248;58.364;25.582;2023-07-20T05:32:14;99509.50;;;18.63;75.57
59767;BME280;46248;58.364;25.582;2023-07-20T05:35:36;99506.41;;;18.67;73.44
59767;BME280;46248;58.364;25.582;2023-07-20T05:38:58;99497.44;;;18.68;75.13
59767;BME280;46248;58.364;25.582;2023-07-20T05:42:20;99496.56;;;18.77;74.88
59767;BME280;46248;58.364;25.582;2023-07-20T05:45:43;99499.72;;;18.81;74.01
59767;BME280;46248;58.364;25.582;2023-07-20T05:49:06;99501.81;;;18.95;73.74
59767;BME280;46248;58.364;25.582;2023-07-20T05:52:28;99501.22;;;19.10;73.58
59767;BME280;46248;58.364;25.582;2023-07-20T05:55:53;99513.59;;;19.35;72.71
59767;BME280;46248;58.364;25.582;2023-07-20T05:59:15;99510.06;;;19.18;72.00
59767;BME280;46248;58.364;25.582;2023-07-20T06:02:38;99506.22;;;19.21;71.93
59767;BME280;46248;58.364;25.582;2023-07-20T06:06:01;99502.28;;;19.25;72.75
59767;BME280;46248;58.364;25.582;2023-07-20T06:09:23;99504.16;;;19.41;72.74
59767;BME280;46248;58.364;25.582;2023-07-20T06:12:45;99500.16;;;19.71;71.72
59767;BME280;46248;58.364;25.582;2023-07-20T06:16:06;99497.38;;;19.97;69.54
59767;BME280;46248;58.364;25.582;2023-07-20T06:19:30;99486.38;;;19.84;69.42
59767;BME280;46248;58.364;25.582;2023-07-20T06:22:51;99480.06;;;19.68;71.04
59767;BME280;46248;58.364;25.582;2023-07-20T06:26:13;99481.44;;;19.97;70.46
59767;BME280;46248;58.364;25.582;2023-07-20T06:29:36;99472.13;;;20.18;68.68
59767;BME280;46248;58.364;25.582;2023-07-20T06:32:58;99483.78;;;20.17;67.65
59767;BME280;46248;58.364;25.582;2023-07-20T06:36:21;99482.78;;;20.09;68.50
59767;BME280;46248;58.364;25.582;2023-07-20T06:39:43;99493.22;;;20.11;68.15
59767;BME280;46248;58.364;25.582;2023-07-20T06:43:08;99483.28;;;20.13;67.31
59767;BME280;46248;58.364;25.582;2023-07-20T06:46:32;99492.41;;;20.27;66.85
59767;BME280;46248;58.364;25.582;2023-07-20T06:49:54;99514.97;;;19.90;68.37
59767;BME280;46248;58.364;25.582;2023-07-20T06:53:17;99532.25;;;19.17;70.85
59767;BME280;46248;58.364;25.582;2023-07-20T06:56:39;99537.25;;;18.50;73.72
59767;BME280;46248;58.364;25.582;2023-07-20T07:00:06;99535.97;;;17.83;74.83
59767;BME280;46248;58.364;25.582;2023-07-20T07:03:29;99551.91;;;17.36;76.53
59767;BME280;46248;58.364;25.582;2023-07-20T07:06:55;99547.84;;;17.04;77.67
59767;BME280;46248;58.364;25.582;2023-07-20T07:10:19;99545.13;;;16.86;77.35
59767;BME280;46248;58.364;25.582;2023-07-20T07:13:41;99546.63;;;16.69;78.18
59767;BME280;46248;58.364;25.582;2023-07-20T07:17:03;99532.91;;;16.56;78.54
59767;BME280;46248;58.364;25.582;2023-07-20T07:20:25;99532.75;;;16.48;79.49
59767;BME280;46248;58.364;25.582;2023-07-20T07:23:48;99524.56;;;16.41;80.05
59767;BME280;46248;58.364;25.582;2023-07-20T07:27:11;99523.47;;;16.34;80.07
59767;BME280;46248;58.364;25.582;2023-07-20T07:30:33;99517.31;;;16.24;79.65
59767;BME280;46248;58.364;25.582;2023-07-20T07:33:55;99529.72;;;16.14;78.90
59767;BME280;46248;58.364;25.582;2023-07-20T07:37:17;99526.63;;;15.99;80.14
59767;BME280;46248;58.364;25.582;2023-07-20T07:40:39;99544.00;;;15.92;80.51
59767;BME280;46248;58.364;25.582;2023-07-20T07:44:04;99537.59;;;15.85;80.52
59767;BME280;46248;58.364;25.582;2023-07-20T07:47:26;99525.38;;;15.84;81.03
59767;BME280;46248;58.364;25.582;2023-07-20T07:50:48;99519.69;;;16.08;81.74
59767;BME280;46248;58.364;25.582;2023-07-20T07:54:10;99517.06;;;16.27;80.91
59767;BME280;46248;58.364;25.582;2023-07-20T07:57:31;99520.53;;;16.37;80.78
59767;BME280;46248;58.364;25.582;2023-07-20T08:00:55;99515.66;;;16.62;81.53
59767;BME280;46248;58.364;25.582;2023-07-20T08:04:17;99515.59;;;16.91;82.11
59767;BME280;46248;58.364;25.582;2023-07-20T08:07:39;99524.00;;;17.14;81.10
59767;BME280;46248;58.364;25.582;2023-07-20T08:11:00;99531.28;;;17.39;78.54
59767;BME280;46248;58.364;25.582;2023-07-20T08:14:27;99525.16;;;17.67;77.34
59767;BME280;46248;58.364;25.582;2023-07-20T08:17:50;99525.13;;;17.94;76.20
59767;BME280;46248;58.364;25.582;2023-07-20T08:21:12;99524.41;;;18.20;75.81
59767;BME280;46248;58.364;25.582;2023-07-20T08:24:34;99516.34;;;18.47;74.43
59767;BME280;46248;58.364;25.582;2023-07-20T08:27:56;99514.72;;;18.72;74.41
59767;BME280;46248;58.364;25.582;2023-07-20T08:31:23;99517.72;;;18.95;73.95
59767;BME280;46248;58.364;25.582;2023-07-20T08:34:46;99518.16;;;19.17;72.94
59767;BME280;46248;58.364;25.582;2023-07-20T08:38:08;99529.13;;;19.22;72.66
59767;BME280;46248;58.364;25.582;2023-07-20T08:41:30;99519.91;;;19.42;73.93
59767;BME280;46248;58.364;25.582;2023-07-20T08:44:53;99536.66;;;19.69;73.11
59767;BME280;46248;58.364;25.582;2023-07-20T08:48:16;99544.19;;;19.48;70.51
59767;BME280;46248;58.364;25.582;2023-07-20T08:51:42;99544.25;;;19.21;73.92
59767;BME280;46248;58.364;25.582;2023-07-20T08:55:05;99566.03;;;19.07;73.84
59767;BME280;46248;58.364;25.582;2023-07-20T08:58:27;99548.41;;;18.98;73.52
59767;BME280;46248;58.364;25.582;2023-07-20T09:01:51;99551.81;;;18.90;70.33
59767;BME280;46248;58.364;25.582;2023-07-20T09:05:14;99544.81;;;18.81;67.77
59767;BME280;46248;58.364;25.582;2023-07-20T09:08:39;99563.75;;;18.86;64.92
59767;BME280;46248;58.364;25.582;2023-07-20T09:12:01;99545.81;;;18.80;65.27
59767;BME280;46248;58.364;25.582;2023-07-20T09:15:23;99541.53;;;18.87;63.13
59767;BME280;46248;58.364;25.582;2023-07-20T09:18:46;99549.34;;;18.89;64.04
59767;BME280;46248;58.364;25.582;2023-07-20T09:22:09;99549.34;;;18.89;62.93
59767;BME280;46248;58.364;25.582;2023-07-20T09:25:32;99548.34;;;18.90;62.01
59767;BME280;46248;58.364;25.582;2023-07-20T09:28:54;99552.34;;;18.94;61.73
59767;BME280;46248;58.364;25.582;2023-07-20T09:32:18;99544.25;;;18.95;61.52
59767;BME280;46248;58.364;25.582;2023-07-20T09:35:45;99539.25;;;18.92;59.77
59767;BME280;46248;58.364;25.582;2023-07-20T09:39:14;99546.22;;;18.93;63.28
59767;BME280;46248;58.364;25.582;2023-07-20T09:42:52;99547.03;;;18.94;62.81
59767;BME280;46248;58.364;25.582;2023-07-20T09:46:17;99551.31;;;18.87;62.95
59767;BME280;46248;58.364;25.582;2023-07-20T09:49:43;99545.50;;;18.83;62.74
59767;BME280;46248;58.364;25.582;2023-07-20T09:53:11;99550.28;;;18.80;63.28
59767;BME280;46248;58.364;25.582;2023-07-20T09:56:34;99558.88;;;18.64;65.38
59767;BME280;46248;58.364;25.582;2023-07-20T09:59:58;99562.25;;;18.48;67.44
59767;BME280;46248;58.364;25.582;2023-07-20T10:03:28;99569.59;;;18.18;67.82
59767;BME280;46248;58.364;25.582;2023-07-20T10:06:55;99569.97;;;18.05;68.63
59767;BME280;46248;58.364;25.582;2023-07-20T10:10:20;99574.25;;;17.89;70.42
59767;BME280;46248;58.364;25.582;2023-07-20T10:13:43;99564.81;;;17.76;69.99
59767;BME280;46248;58.364;25.582;2023-07-20T10:17:11;99575.69;;;17.83;70.98
59767;BME280;46248;58.364;25.582;2023-07-20T10:20:35;99576.91;;;17.89;70.58
59767;BME280;46248;58.364;25.582;2023-07-20T10:23:59;99578.97;;;17.95;70.55
59767;BME280;46248;58.364;25.582;2023-07-20T10:27:21;99580.25;;;18.08;68.30
59767;BME280;46248;58.364;25.582;2023-07-20T10:30:45;99584.81;;;18.16;67.69
59767;BME280;46248;58.364;25.582;2023-07-20T10:34:10;99590.19;;;18.24;66.31
59767;BME280;46248;58.364;25.582;2023-07-20T10:37:46;99584.38;;;18.39;65.53
59767;BME280;46248;58.364;25.582;2023-07-20T10:41:18;99583.75;;;18.63;65.05
59767;BME280;46248;58.364;25.582;2023-07-20T10:44:41;99588.22;;;18.80;66.06
59767;BME280;46248;58.364;25.582;2023-07-20T10:48:04;99594.94;;;18.92;65.07
59767;BME280;46248;58.364;25.582;2023-07-20T10:51:28;99589.44;;;19.12;63.25
59767;BME280;46248;58.364;25.582;2023-07-20T10:54:50;99579.38;;;19.23;64.81
59767;BME280;46248;58.364;25.582;2023-07-20T10:58:13;99582.03;;;19.23;63.98
59767;BME280;46248;58.364;25.582;2023-07-20T11:01:36;99578.19;;;19.44;63.60
59767;BME280;46248;58.364;25.582;2023-07-20T11:04:58;99589.88;;;19.59;63.50
59767;BME280;46248;58.364;25.582;2023-07-20T11:12:09;99578.22;;;19.52;61.93
59767;BME280;46248;58.364;25.582;2023-07-20T11:15:44;99611.97;;;19.08;64.18
59767;BME280;46248;58.364;25.582;2023-07-20T11:19:14;99612.84;;;18.90;66.63
59767;BME280;46248;58.364;25.582;2023-07-20T11:22:57;99628.91;;;18.89;64.82
59767;BME280;46248;58.364;25.582;2023-07-20T11:26:19;99622.00;;;18.60;64.56
59767;BME280;46248;58.364;25.582;2023-07-20T11:29:45;99617.59;;;18.51;66.01
59767;BME280;46248;58.364;25.582;2023-07-20T11:33:08;99608.13;;;18.48;64.98
59767;BME280;46248;58.364;25.582;2023-07-20T11:36:30;99604.75;;;18.56;65.38
59767;BME280;46248;58.364;25.582;2023-07-20T11:39:56;99603.84;;;18.47;63.52
59767;BME280;46248;58.364;25.582;2023-07-20T11:43:18;99599.06;;;18.51;61.73
59767;BME280;46248;58.364;25.582;2023-07-20T11:46:42;99609.56;;;18.61;64.08
59767;BME280;46248;58.364;25.582;2023-07-20T11:50:06;99609.25;;;18.73;63.97
59767;BME280;46248;58.364;25.582;2023-07-20T11:53:28;99608.53;;;18.89;63.69
59767;BME280;46248;58.364;25.582;2023-07-20T11:56:53;99606.22;;;19.12;61.94
59767;BME280;46248;58.364;25.582;2023-07-20T12:00:16;99609.91;;;19.19;59.84
59767;BME280;46248;58.364;25.582;2023-07-20T12:03:41;99604.06;;;19.16;59.60
59767;BME280;46248;58.364;25.582;2023-07-20T12:07:04;99588.34;;;19.22;58.92
59767;BME280;46248;58.364;25.582;2023-07-20T12:10:29;99595.81;;;19.27;59.01
59767;BME280;46248;58.364;25.582;2023-07-20T12:13:50;99594.56;;;19.39;59.21
59767;BME280;46248;58.364;25.582;2023-07-20T12:17:23;99580.47;;;19.39;58.90
59767;BME280;46248;58.364;25.582;2023-07-20T12:20:47;99597.44;;;19.46;61.33
59767;BME280;46248;58.364;25.582;2023-07-20T12:24:10;99588.69;;;19.54;60.99
59767;BME280;46248;58.364;25.582;2023-07-20T12:27:32;99592.22;;;19.36;61.04
59767;BME280;46248;58.364;25.582;2023-07-20T12:30:54;99599.16;;;19.29;62.19
59767;BME280;46248;58.364;25.582;2023-07-20T12:34:17;99604.66;;;19.28;62.54
59767;BME280;46248;58.364;25.582;2023-07-20T12:37:41;99610.34;;;19.15;60.17
59767;BME280;46248;58.364;25.582;2023-07-20T12:41:03;99614.81;;;18.88;62.52
59767;BME280;46248;58.364;25.582;2023-07-20T12:44:25;99622.59;;;18.72;63.87
59767;BME280;46248;58.364;25.582;2023-07-20T12:47:47;99636.38;;;18.22;69.24
59767;BME280;46248;58.364;25.582;2023-07-20T12:51:09;99618.53;;;17.96;71.39
59767;BME280;46248;58.364;25.582;2023-07-20T12:54:33;99621.38;;;17.85;72.84
59767;BME280;46248;58.364;25.582;2023-07-20T12:57:55;99623.91;;;17.77;73.71
59767;BME280;46248;58.364;25.582;2023-07-20T13:01:17;99616.94;;;17.76;73.52
59767;BME280;46248;58.364;25.582;2023-07-20T13:04:39;99618.06;;;17.73;74.48
59767;BME280;46248;58.364;25.582;2023-07-20T13:08:00;99616.94;;;17.85;75.99
59767;BME280;46248;58.364;25.582;2023-07-20T13:11:27;99617.41;;;17.99;77.41
59767;BME280;46248;58.364;25.582;2023-07-20T13:14:48;99615.69;;;18.07;77.01
59767;BME280;46248;58.364;25.582;2023-07-20T13:18:10;99615.72;;;18.25;75.40
59767;BME280;46248;58.364;25.582;2023-07-20T13:21:31;99611.47;;;18.50;76.97
59767;BME280;46248;58.364;25.582;2023-07-20T13:24:53;99617.03;;;18.75;75.89
59767;BME280;46248;58.364;25.582;2023-07-20T13:28:16;99613.00;;;18.89;70.55
59767;BME280;46248;58.364;25.582;2023-07-20T13:31:40;99609.88;;;18.93;71.27
59767;BME280;46248;58.364;25.582;2023-07-20T13:35:03;99609.94;;;19.02;71.48
59767;BME280;46248;58.364;25.582;2023-07-20T13:38:25;99611.59;;;19.03;70.54
59767;BME280;46248;58.364;25.582;2023-07-20T13:41:47;99602.44;;;18.97;73.88
59767;BME280;46248;58.364;25.582;2023-07-20T13:45:11;99608.19;;;19.10;74.10
59767;BME280;46248;58.364;25.582;2023-07-20T13:48:35;99602.44;;;19.23;70.72
59767;BME280;46248;58.364;25.582;2023-07-20T13:51:57;99603.72;;;19.37;69.62
59767;BME280;46248;58.364;25.582;2023-07-20T13:55:22;99606.13;;;19.30;67.61
59767;BME280;46248;58.364;25.582;2023-07-20T13:58:47;99601.31;;;19.60;68.69
59767;BME280;46248;58.364;25.582;2023-07-20T14:02:11;99600.44;;;19.77;64.28
59767;BME280;46248;58.364;25.582;2023-07-20T14:05:36;99610.78;;;19.88;63.05
59767;BME280;46248;58.364;25.582;2023-07-20T14:09:02;99612.09;;;19.93;55.17
59767;BME280;46248;58.364;25.582;2023-07-20T14:12:24;99616.09;;;19.88;54.83
59767;BME280;46248;58.364;25.582;2023-07-20T14:15:46;99618.88;;;19.87;55.65
59767;BME280;46248;58.364;25.582;2023-07-20T14:19:09;99615.72;;;19.83;55.97
59767;BME280;46248;58.364;25.582;2023-07-20T14:22:30;99610.22;;;19.77;54.60
59767;BME280;46248;58.364;25.582;2023-07-20T14:25:52;99611.41;;;19.82;56.34
59767;BME280;46248;58.364;25.582;2023-07-20T14:29:14;99611.88;;;19.78;54.29
59767;BME280;46248;58.364;25.582;2023-07-20T14:32:36;99618.50;;;19.74;55.97
59767;BME280;46248;58.364;25.582;2023-07-20T14:36:00;99616.38;;;19.77;56.03
59767;BME280;46248;58.364;25.582;2023-07-20T14:39:24;99617.38;;;19.76;54.01
59767;BME280;46248;58.364;25.582;2023-07-20T14:42:46;99610.78;;;19.62;53.60
59767;BME280;46248;58.364;25.582;2023-07-20T14:46:08;99614.41;;;19.53;55.24
59767;BME280;46248;58.364;25.582;2023-07-20T14:49:30;99624.19;;;19.53;55.18
59767;BME280;46248;58.364;25.582;2023-07-20T14:52:54;99618.38;;;19.57;57.45
59767;BME280;46248;58.364;25.582;2023-07-20T14:56:16;99612.09;;;19.58;56.48
59767;BME280;46248;58.364;25.582;2023-07-20T14:59:37;99621.53;;;19.53;56.97
59767;BME280;46248;58.364;25.582;2023-07-20T15:02:59;99619.47;;;19.64;57.43
59767;BME280;46248;58.364;25.582;2023-07-20T15:06:21;99620.84;;;19.77;57.41
59767;BME280;46248;58.364;25.582;2023-07-20T15:09:45;99609.41;;;19.84;57.09
59767;BME280;46248;58.364;25.582;2023-07-20T15:13:06;99621.72;;;19.94;53.74
59767;BME280;46248;58.364;25.582;2023-07-20T15:16:28;99619.72;;;19.79;53.51
59767;BME280;46248;58.364;25.582;2023-07-20T15:19:50;99615.97;;;19.64;52.91
59767;BME280;46248;58.364;25.582;2023-07-20T15:23:12;99614.41;;;19.53;52.41
59767;BME280;46248;58.364;25.582;2023-07-20T15:26:35;99613.41;;;19.54;53.38
59767;BME280;46248;58.364;25.582;2023-07-20T15:29:57;99606.75;;;19.50;52.84
59767;BME280;46248;58.364;25.582;2023-07-20T15:33:18;99613.19;;;19.48;53.93
59767;BME280;46248;58.364;25.582;2023-07-20T15:36:40;99610.72;;;19.46;51.70
59767;BME280;46248;58.364;25.582;2023-07-20T15:40:03;99611.69;;;19.45;53.03
59767;BME280;46248;58.364;25.582;2023-07-20T15:43:27;99610.03;;;19.44;53.37
59767;BME280;46248;58.364;25.582;2023-07-20T15:46:49;99614.34;;;19.45;52.08
59767;BME280;46248;58.364;25.582;2023-07-20T15:50:12;99627.31;;;19.48;52.71
59767;BME280;46248;58.364;25.582;2023-07-20T15:53:33;99625.06;;;19.61;53.21
59767;BME280;46248;58.364;25.582;2023-07-20T15:56:56;99617.25;;;19.86;53.28
59767;BME280;46248;58.364;25.582;2023-07-20T16:00:19;99618.44;;;20.00;49.82
59767;BME280;46248;58.364;25.582;2023-07-20T16:03:41;99613.19;;;20.32;50.20
59767;BME280;46248;58.364;25.582;2023-07-20T16:07:04;99625.59;;;20.83;50.45
59767;BME280;46248;58.364;25.582;2023-07-20T16:10:27;99623.88;;;21.39;48.42
59767;BME280;46248;58.364;25.582;2023-07-20T16:13:49;99627.38;;;21.87;45.74
59767;BME280;46248;58.364;25.582;2023-07-20T16:17:15;99620.38;;;21.94;46.41
59767;BME280;46248;58.364;25.582;2023-07-20T16:20:38;99620.41;;;22.25;44.77
59767;BME280;46248;58.364;25.582;2023-07-20T16:24:00;99630.50;;;22.61;44.58
59767;BME280;46248;58.364;25.582;2023-07-20T16:27:22;99624.25;;;22.92;44.31
59767;BME280;46248;58.364;25.582;2023-07-20T16:30:44;99621.28;;;22.86;43.12
59767;BME280;46248;58.364;25.582;2023-07-20T16:34:07;99623.94;;;23.09;43.14
59767;BME280;46248;58.364;25.582;2023-07-20T16:37:28;99620.09;;;23.57;42.14
59767;BME280;46248;58.364;25.582;2023-07-20T16:40:55;99616.09;;;23.75;41.63
59767;BME280;46248;58.364;25.582;2023-07-20T16:44:17;99615.88;;;23.92;40.28
59767;BME280;46248;58.364;25.582;2023-07-20T16:47:39;99626.03;;;23.52;40.43
59767;BME280;46248;58.364;25.582;2023-07-20T16:51:03;99630.06;;;23.48;42.71
59767;BME280;46248;58.364;25.582;2023-07-20T16:54:25;99630.16;;;23.40;40.90
59767;BME280;46248;58.364;25.582;2023-07-20T16:57:47;99619.81;;;23.22;40.82
59767;BME280;46248;58.364;25.582;2023-07-20T17:01:09;99631.16;;;23.24;43.19
59767;BME280;46248;58.364;25.582;2023-07-20T17:04:31;99631.91;;;23.47;41.44
59767;BME280;46248;58.364;25.582;2023-07-20T17:07:54;99624.63;;;23.41;41.45
59767;BME280;46248;58.364;25.582;2023-07-20T17:11:16;99620.31;;;23.40;43.75
59767;BME280;46248;58.364;25.582;2023-07-20T17:14:38;99619.66;;;23.53;43.90
59767;BME280;46248;58.364;25.582;2023-07-20T17:17:59;99627.22;;;23.49;43.82
59767;BME280;46248;58.364;25.582;2023-07-20T17:21:21;99617.72;;;23.47;43.52
59767;BME280;46248;58.364;25.582;2023-07-20T17:24:44;99626.84;;;23.52;43.63
59767;BME280;46248;58.364;25.582;2023-07-20T17:28:09;99621.19;;;23.32;44.70
59767;BME280;46248;58.364;25.582;2023-07-20T17:31:34;99628.59;;;23.30;44.67
59767;BME280;46248;58.364;25.582;2023-07-20T17:34:55;99624.78;;;23.10;46.03
59767;BME280;46248;58.364;25.582;2023-07-20T17:38:18;99629.47;;;23.23;45.59
59767;BME280;46248;58.364;25.582;2023-07-20T17:41:45;99624.66;;;22.80;45.92